首页
METAR-TAF:

METAR-TAF

机场 :

Mankato, 明尼蘇達州, 美国

纬度: 44-13N, 经度: 093-55W, 海拔: 311米

当前天气观测

该预报发布于27分钟前的09:07 UTC
风速9节,风向南转南东
温度 20°C
湿度 94%
气压 1005 hPa
能見度: 16.1公里
少量云层高于2800英尺
阴天层高于6500英尺
附近有雷暴, 小雨

METAR: KMKT 160907Z AUTO 16009KT 10SM VCTS -RA FEW028 OVC065 20/19 A2967 RMK AO2 LTG DSNT SW-NW TSB01 PNO $

时间: 04:34 (09:34 UTC)

预报

该预报发布于3小时和59分钟前的05:35 UTC
预报有效从16日的 06点(UTC)到 17日的 06点(UTC)
风速12节,风向南转南东,有时为19节阵风
能見度: 8.0公里
少量云层高于800英尺
多云层高于5000英尺, 积雨云.
雷暴, 小雨, 轻雾
从 16日的 0730点(UTC)
风速12节,风向,有时为20节阵风
能見度: 10公里
多云层高于4000英尺
从 16日的 1900点(UTC)
风速13节,风向西南,有时为21节阵风
能見度: 10公里
多云层高于8000英尺
从 17日的 0200点(UTC)
风速7节,风向西
能見度: 10公里
多云层高于5000英尺

TAF: KMKT 160535Z 1606/1706 16012G19KT 5SM -TSRA BR FEW008 BKN050CB FM160730 18012G20KT P6SM BKN040 FM161900 22013G21KT P6SM BKN080 FM170200 27007KT P6SM BKN050

超过4000个机场的气象观测和天气预报(METAR&TAF报告)。

可查询的气象台以黄色和红色小点在地图上表示。

将鼠标移到小点上方,可查看气象台名称。

然后点击查看天气观测和预报。

如需切换地图:点击带黑十字的绿色按钮放大地图;点击带横线的绿色按钮缩小地图;或者点击绿色箭头查看邻近地区的地图。


METAR-TAF: